createdAt,value
2019-05-29T00:00:44.098Z,100260.66
2019-05-29T00:04:00.808Z,100263.65
2019-05-29T00:07:18.471Z,100268.17
2019-05-29T00:10:35.581Z,100263.97
2019-05-29T00:13:52.594Z,100274.20
2019-05-29T00:17:10.413Z,100281.63
2019-05-29T00:20:27.146Z,100268.22
2019-05-29T00:23:43.751Z,100275.66
2019-05-29T00:27:00.388Z,100285.75
2019-05-29T00:30:17.496Z,100287.38
2019-05-29T00:33:34.251Z,100295.98
2019-05-29T00:36:50.929Z,100293.88
2019-05-29T00:40:08.951Z,100296.52
2019-05-29T00:43:25.675Z,100302.47
2019-05-29T00:46:42.286Z,100297.08
2019-05-29T00:49:59.222Z,100292.98
2019-05-29T00:53:16.359Z,100313.57
2019-05-29T00:56:33.094Z,100320.98
2019-05-29T00:59:49.807Z,100314.91
2019-05-29T01:03:06.457Z,100317.91
2019-05-29T01:06:23.245Z,100318.23
2019-05-29T01:09:39.858Z,100323.70
2019-05-29T01:12:56.591Z,100322.88
2019-05-29T01:16:13.404Z,100328.31
2019-05-29T01:19:30.048Z,100317.81
2019-05-29T01:22:46.794Z,100329.80
2019-05-29T01:26:03.632Z,100331.30
2019-05-29T01:29:21.221Z,100343.16
2019-05-29T01:32:37.852Z,100335.91
2019-05-29T01:35:54.570Z,100341.05
2019-05-29T01:39:12.120Z,100350.89
2019-05-29T01:42:28.850Z,100343.19
2019-05-29T01:45:45.467Z,100348.28
2019-05-29T01:49:02.195Z,100359.33
2019-05-29T01:52:19.657Z,100364.91
2019-05-29T01:55:36.326Z,100365.59
2019-05-29T01:58:53.030Z,100361.14
2019-05-29T02:02:10.039Z,100383.48
2019-05-29T02:05:26.686Z,100375.30
2019-05-29T02:08:43.283Z,100381.20
2019-05-29T02:11:59.955Z,100391.07
2019-05-29T02:15:31.490Z,100404.22
2019-05-29T02:18:39.017Z,100412.46
2019-05-29T02:21:55.667Z,100422.64
2019-05-29T02:25:15.802Z,100426.92
2019-05-29T02:28:31.017Z,100430.70
2019-05-29T02:31:47.721Z,100443.19
2019-05-29T02:35:04.346Z,100445.48
2019-05-29T02:38:22.705Z,100463.54
2019-05-29T02:41:39.550Z,100459.76
2019-05-29T02:44:56.200Z,100465.52
2019-05-29T02:48:12.796Z,100468.47
2019-05-29T02:51:30.428Z,100484.89
2019-05-29T02:54:47.138Z,100482.76
2019-05-29T02:58:04.114Z,100488.19
2019-05-29T03:01:21.542Z,100486.88
2019-05-29T03:04:38.717Z,100497.04
2019-05-29T03:07:55.388Z,100493.43
2019-05-29T03:11:12.101Z,100497.04
2019-05-29T03:14:31.636Z,100506.72
2019-05-29T03:17:49.212Z,100510.83
2019-05-29T03:21:05.825Z,100514.62
2019-05-29T03:24:24.388Z,100527.25
2019-05-29T03:27:40.881Z,100530.69
2019-05-29T03:30:57.501Z,100527.42
2019-05-29T03:34:14.215Z,100540.40
2019-05-29T03:37:32.353Z,100546.63
2019-05-29T03:40:49.061Z,100558.13
2019-05-29T03:44:10.114Z,100559.00
2019-05-29T03:47:24.125Z,100559.33
2019-05-29T03:50:40.773Z,100563.61
2019-05-29T03:53:57.419Z,100578.55
2019-05-29T03:57:14.067Z,100582.33
2019-05-29T04:00:38.739Z,100576.92
2019-05-29T04:03:49.470Z,100584.45
2019-05-29T04:07:06.149Z,100586.75
2019-05-29T04:10:24.387Z,100591.35
2019-05-29T04:13:41.209Z,100596.63
2019-05-29T04:17:00.247Z,100598.25
2019-05-29T04:20:24.212Z,100602.86
2019-05-29T04:23:43.373Z,100613.05
2019-05-29T04:27:01.095Z,100606.79
2019-05-29T04:30:21.955Z,100612.23
2019-05-29T04:33:38.975Z,100624.73
2019-05-29T04:36:55.748Z,100628.66
2019-05-29T04:40:12.680Z,100633.58
2019-05-29T04:43:30.889Z,100639.34
2019-05-29T04:46:47.804Z,100649.02
2019-05-29T04:50:04.494Z,100655.28
2019-05-29T04:53:21.332Z,100667.59
2019-05-29T04:56:39.692Z,100664.94
2019-05-29T04:59:56.416Z,100676.30
2019-05-29T05:03:13.089Z,100672.80
2019-05-29T05:06:31.096Z,100687.28
2019-05-29T05:09:47.728Z,100686.46
2019-05-29T05:13:04.418Z,100686.10
2019-05-29T05:16:21.022Z,100680.00
2019-05-29T05:19:38.228Z,100696.11
2019-05-29T05:22:55.106Z,100702.70
2019-05-29T05:26:12.496Z,100715.52
2019-05-29T05:29:30.131Z,100715.83
2019-05-29T05:32:46.779Z,100725.70
2019-05-29T05:36:03.400Z,100732.75
2019-05-29T05:39:20.517Z,100739.50
2019-05-29T05:42:37.337Z,100747.84
2019-05-29T05:45:54.017Z,100757.23
2019-05-29T05:49:10.620Z,100756.07
2019-05-29T05:52:27.816Z,100770.97
2019-05-29T05:55:44.643Z,100777.20
2019-05-29T05:59:01.373Z,100785.28
2019-05-29T06:02:18.302Z,100787.01
2019-05-29T06:05:36.062Z,100788.27
2019-05-29T06:08:52.959Z,100780.92
2019-05-29T06:12:09.609Z,100778.67
2019-05-29T06:15:26.417Z,100796.16
2019-05-29T06:18:43.311Z,100798.72
2019-05-29T06:21:59.907Z,100816.02
2019-05-29T06:25:18.139Z,100817.80
2019-05-29T06:28:35.286Z,100817.91
2019-05-29T06:31:51.871Z,100814.83
2019-05-29T06:35:09.104Z,100806.67
2019-05-29T06:38:25.938Z,100812.87
2019-05-29T06:41:44.228Z,100817.02
2019-05-29T06:45:01.312Z,100808.92
2019-05-29T06:48:40.525Z,100812.32
2019-05-29T06:51:39.611Z,100826.84
2019-05-29T06:54:56.373Z,100831.16
2019-05-29T06:58:13.590Z,100829.84
2019-05-29T07:01:30.499Z,100838.41
2019-05-29T07:04:47.296Z,100840.17
2019-05-29T07:08:18.134Z,100856.48
2019-05-29T07:11:22.673Z,100851.19
2019-05-29T07:14:40.326Z,100851.09
2019-05-29T07:17:57.121Z,100861.39
2019-05-29T07:21:16.756Z,100870.06
2019-05-29T07:24:33.456Z,100865.83
2019-05-29T07:27:51.618Z,100879.67
2019-05-29T07:31:08.590Z,100884.20
2019-05-29T07:34:25.205Z,100890.98
2019-05-29T07:37:41.851Z,100872.34
2019-05-29T07:40:58.480Z,100878.55
2019-05-29T07:44:15.217Z,100887.83
2019-05-29T07:47:32.476Z,100901.52
2019-05-29T07:50:49.246Z,100903.81
2019-05-29T07:54:06.587Z,100908.66
2019-05-29T07:57:23.195Z,100914.87
2019-05-29T08:01:01.056Z,100911.54
2019-05-29T08:07:52.338Z,100909.69
2019-05-29T08:11:09.161Z,100921.76
2019-05-29T08:14:26.221Z,100929.99
2019-05-29T08:17:44.056Z,100939.14
2019-05-29T08:21:00.889Z,100924.95
2019-05-29T08:24:17.662Z,100926.11
2019-05-29T08:27:34.271Z,100928.24
2019-05-29T08:30:55.815Z,100937.75
2019-05-29T08:34:09.751Z,100939.59
2019-05-29T08:37:26.398Z,100945.96
2019-05-29T08:40:43.082Z,100954.16
2019-05-29T08:43:59.977Z,100950.14
2019-05-29T08:47:18.325Z,100960.83
2019-05-29T08:50:34.941Z,100958.60
2019-05-29T08:53:53.415Z,100958.13
2019-05-29T08:57:10.379Z,100964.94
2019-05-29T09:00:27.742Z,100957.50
2019-05-29T09:03:44.876Z,100969.80
2019-05-29T09:07:01.554Z,100978.38
2019-05-29T09:10:20.412Z,100978.81
2019-05-29T09:13:37.057Z,100981.32
2019-05-29T09:16:53.775Z,100986.33
2019-05-29T09:20:29.463Z,100987.17
2019-05-29T09:23:30.593Z,100986.45
2019-05-29T09:26:47.358Z,100979.59
2019-05-29T09:30:06.109Z,100972.31
2019-05-29T09:33:24.527Z,100974.95
2019-05-29T09:36:41.872Z,100978.88
2019-05-29T09:39:58.588Z,100997.66
2019-05-29T09:43:16.934Z,100980.66
2019-05-29T09:46:33.535Z,101003.41
2019-05-29T09:49:50.140Z,100990.77
2019-05-29T09:53:06.732Z,101002.86
2019-05-29T09:56:23.581Z,101005.11
2019-05-29T09:59:40.362Z,101010.39
2019-05-29T10:02:57.318Z,100999.22
2019-05-29T10:06:13.982Z,101006.95
2019-05-29T10:09:30.751Z,101007.97
2019-05-29T10:12:47.553Z,101021.54
2019-05-29T10:16:04.713Z,101032.44
2019-05-29T10:19:21.498Z,101020.29
2019-05-29T10:22:38.123Z,101025.20
2019-05-29T10:25:56.395Z,101033.98
2019-05-29T10:29:19.690Z,101028.61
2019-05-29T10:32:36.485Z,101040.02
2019-05-29T10:35:55.364Z,101035.72
2019-05-29T10:39:13.038Z,101046.75
2019-05-29T10:42:30.380Z,101046.40
2019-05-29T10:45:48.000Z,101058.73
2019-05-29T10:49:05.225Z,101063.36
2019-05-29T10:52:21.833Z,101068.45
2019-05-29T10:55:38.589Z,101065.11
2019-05-29T10:58:59.605Z,101078.30
2019-05-29T11:02:14.861Z,101076.17
2019-05-29T11:05:31.479Z,101079.03
2019-05-29T11:08:48.292Z,101072.28
2019-05-29T11:12:05.114Z,101085.23
2019-05-29T11:15:22.667Z,101103.67
2019-05-29T11:18:39.266Z,101098.91
2019-05-29T11:22:00.978Z,101101.23
2019-05-29T11:25:23.746Z,101104.30
2019-05-29T11:28:51.197Z,101101.16
2019-05-29T11:32:15.383Z,101093.71
2019-05-29T11:35:54.836Z,101104.45
2019-05-29T11:39:03.921Z,101106.89
2019-05-29T11:42:41.556Z,101095.88
2019-05-29T11:50:23.611Z,101112.92
2019-05-29T11:53:40.539Z,101093.19
2019-05-29T11:56:59.268Z,101109.23
2019-05-29T12:00:21.763Z,101101.59
2019-05-29T12:04:03.994Z,101116.05
2019-05-29T12:06:57.583Z,101105.13
2019-05-29T12:10:53.776Z,101120.25
2019-05-29T12:14:10.720Z,101106.55
2019-05-29T12:17:27.678Z,101112.72
2019-05-29T12:20:44.514Z,101131.52
2019-05-29T12:24:02.319Z,101126.60
2019-05-29T12:27:19.314Z,101131.28
2019-05-29T12:30:36.774Z,101126.14
2019-05-29T12:33:54.882Z,101134.19
2019-05-29T12:37:11.859Z,101130.84
2019-05-29T12:40:28.462Z,101142.09
2019-05-29T12:43:45.229Z,101130.00
2019-05-29T12:47:02.005Z,101138.80
2019-05-29T12:50:23.231Z,101132.02
2019-05-29T12:53:39.853Z,101128.88
2019-05-29T12:57:04.276Z,101136.98
2019-05-29T13:00:23.619Z,101132.49
2019-05-29T13:03:40.631Z,101131.68
2019-05-29T13:06:58.637Z,101135.30
2019-05-29T13:10:30.223Z,101132.49
2019-05-29T13:13:37.936Z,101132.23
2019-05-29T13:16:54.800Z,101140.23
2019-05-29T13:20:21.008Z,101136.42
2019-05-29T13:23:44.284Z,101134.84
2019-05-29T13:26:50.638Z,101130.09
2019-05-29T13:30:08.366Z,101131.38
2019-05-29T13:33:25.392Z,101127.46
2019-05-29T13:36:42.343Z,101132.70
2019-05-29T13:39:59.995Z,101132.47
2019-05-29T13:43:16.730Z,101133.94
2019-05-29T13:46:33.569Z,101135.21
2019-05-29T13:49:50.206Z,101142.65
2019-05-29T13:53:07.609Z,101142.70
2019-05-29T13:56:24.524Z,101137.14
2019-05-29T13:59:41.287Z,101138.25
2019-05-29T14:03:00.403Z,101135.51
2019-05-29T14:06:17.176Z,101140.78
2019-05-29T14:09:34.176Z,101148.08
2019-05-29T14:12:50.922Z,101151.31
2019-05-29T14:16:08.492Z,101147.39
2019-05-29T14:19:25.518Z,101143.72
2019-05-29T14:22:42.260Z,101145.48
2019-05-29T14:26:00.409Z,101143.05
2019-05-29T14:29:17.229Z,101140.83
2019-05-29T14:32:34.059Z,101145.42
2019-05-29T14:35:50.837Z,101145.12
2019-05-29T14:39:13.926Z,101147.95
2019-05-29T14:42:30.997Z,101144.73
2019-05-29T14:45:47.851Z,101162.25
2019-05-29T14:49:04.496Z,101150.87
2019-05-29T14:52:33.237Z,101153.25
2019-05-29T14:55:51.565Z,101158.22
2019-05-29T14:59:09.330Z,101155.78
2019-05-29T15:02:26.837Z,101165.09
2019-05-29T15:05:43.554Z,101165.29
2019-05-29T15:09:00.562Z,101166.95
2019-05-29T15:12:17.313Z,101176.78
2019-05-29T15:15:34.445Z,101163.16
2019-05-29T15:18:52.144Z,101161.20
2019-05-29T15:25:53.718Z,101169.53
2019-05-29T15:29:14.388Z,101171.56
2019-05-29T15:32:29.095Z,101174.84
2019-05-29T15:35:45.820Z,101175.56
2019-05-29T15:39:02.548Z,101177.62
2019-05-29T15:42:19.403Z,101179.61
2019-05-29T15:45:36.094Z,101194.75
2019-05-29T15:48:52.734Z,101195.84
2019-05-29T15:52:10.965Z,101190.40
2019-05-29T15:55:33.701Z,101189.45
2019-05-29T15:58:46.812Z,101196.52
2019-05-29T16:02:03.607Z,101200.84
2019-05-29T16:05:21.122Z,101192.93
2019-05-29T16:08:38.125Z,101199.22
2019-05-29T16:11:54.784Z,101197.66
2019-05-29T16:15:13.241Z,101193.55
2019-05-29T16:18:30.278Z,101198.53
2019-05-29T16:21:47.040Z,101196.06
2019-05-29T16:25:04.687Z,101198.27
2019-05-29T16:28:21.656Z,101199.22
2019-05-29T16:31:38.378Z,101203.00
2019-05-29T16:34:55.014Z,101199.97
2019-05-29T16:38:11.900Z,101204.62
2019-05-29T16:41:35.299Z,101209.13
2019-05-29T16:44:56.886Z,101211.30
2019-05-29T16:48:14.587Z,101209.74
2019-05-29T16:52:07.767Z,101213.73
2019-05-29T16:55:24.810Z,101219.05
2019-05-29T16:58:41.529Z,101220.02
2019-05-29T17:01:58.348Z,101220.81
2019-05-29T17:05:17.724Z,101223.03
2019-05-29T17:12:45.706Z,101236.38
2019-05-29T17:16:30.202Z,101241.77
2019-05-29T17:19:27.317Z,101241.77
2019-05-29T17:26:55.397Z,101248.84
2019-05-29T17:30:12.796Z,101239.68
2019-05-29T17:33:30.333Z,101248.69
2019-05-29T17:36:47.044Z,101249.33
2019-05-29T17:40:03.885Z,101254.70
2019-05-29T17:43:25.386Z,101260.58
2019-05-29T17:46:47.021Z,101263.42
2019-05-29T17:50:05.237Z,101270.55
2019-05-29T17:53:41.250Z,101288.06
2019-05-29T17:56:58.815Z,101276.18
2019-05-29T18:00:28.129Z,101284.86
2019-05-29T18:03:49.843Z,101285.55
2019-05-29T18:07:07.223Z,101282.20
2019-05-29T18:10:35.510Z,101292.49
2019-05-29T18:13:52.369Z,101283.16
2019-05-29T18:17:09.289Z,101297.41
2019-05-29T18:20:26.368Z,101293.92
2019-05-29T18:23:43.058Z,101303.35
2019-05-29T18:26:59.758Z,101304.89
2019-05-29T18:30:22.320Z,101321.92
2019-05-29T18:33:39.394Z,101322.27
2019-05-29T18:36:56.068Z,101334.11
2019-05-29T18:40:13.099Z,101339.02
2019-05-29T18:43:30.294Z,101340.62
2019-05-29T18:46:47.116Z,101358.91
2019-05-29T18:50:07.456Z,101358.16
2019-05-29T18:53:26.985Z,101367.05
2019-05-29T18:57:13.271Z,101369.98
2019-05-29T19:00:04.558Z,101367.95
2019-05-29T19:03:21.722Z,101378.78
2019-05-29T19:06:38.587Z,101386.33
2019-05-29T19:09:55.251Z,101388.27
2019-05-29T19:13:12.126Z,101392.19
2019-05-29T19:16:29.973Z,101398.74
2019-05-29T19:19:50.121Z,101400.88
2019-05-29T19:23:07.059Z,101404.02
2019-05-29T19:26:28.773Z,101410.00
2019-05-29T19:30:17.587Z,101406.73
2019-05-29T19:33:43.340Z,101426.91
2019-05-29T19:37:15.109Z,101434.86
2019-05-29T19:40:34.620Z,101433.54
2019-05-29T19:44:04.260Z,101437.33
2019-05-29T19:47:24.920Z,101437.48
2019-05-29T19:50:43.301Z,101449.03
2019-05-29T19:54:00.007Z,101444.88
2019-05-29T19:57:16.749Z,101459.07
2019-05-29T20:00:34.305Z,101456.92
2019-05-29T20:03:54.926Z,101469.28
2019-05-29T20:07:21.705Z,101467.92
2019-05-29T20:10:38.359Z,101473.48
2019-05-29T20:13:59.949Z,101478.73
2019-05-29T20:17:10.357Z,101476.42
2019-05-29T20:20:34.536Z,101481.67
2019-05-29T20:24:00.630Z,101492.02
2019-05-29T20:27:18.074Z,101492.77
2019-05-29T20:30:34.789Z,101500.33
2019-05-29T20:33:53.116Z,101503.72
2019-05-29T20:37:32.458Z,101516.19
2019-05-29T20:40:49.738Z,101507.73
2019-05-29T20:44:06.801Z,101511.07
2019-05-29T20:47:23.571Z,101525.82
2019-05-29T20:50:40.170Z,101529.39
2019-05-29T20:53:56.958Z,101520.41
2019-05-29T20:57:13.578Z,101524.45
2019-05-29T21:00:30.436Z,101522.41
2019-05-29T21:03:47.409Z,101525.11
2019-05-29T21:07:09.076Z,101530.30
2019-05-29T21:10:26.040Z,101526.28
2019-05-29T21:13:43.663Z,101533.64
2019-05-29T21:17:00.762Z,101546.39
2019-05-29T21:20:18.267Z,101549.30
2019-05-29T21:23:34.874Z,101546.09
2019-05-29T21:26:51.579Z,101545.37
2019-05-29T21:30:08.200Z,101548.57
2019-05-29T21:33:25.238Z,101552.63
2019-05-29T21:36:42.229Z,101557.80
2019-05-29T21:39:58.930Z,101552.89
2019-05-29T21:43:17.243Z,101548.55
2019-05-29T21:46:33.955Z,101544.50
2019-05-29T21:49:50.879Z,101546.54
2019-05-29T21:53:07.648Z,101550.58
2019-05-29T21:56:24.379Z,101557.38
2019-05-29T21:59:41.654Z,101554.97
2019-05-29T22:02:58.351Z,101561.50
2019-05-29T22:06:15.031Z,101557.95
2019-05-29T22:09:31.771Z,101573.16
2019-05-29T22:12:48.742Z,101565.15
2019-05-29T22:16:05.404Z,101563.80
2019-05-29T22:19:22.085Z,101574.70
2019-05-29T22:22:38.760Z,101570.95
2019-05-29T22:25:55.441Z,101579.37
2019-05-29T22:29:17.953Z,101571.69
2019-05-29T22:32:30.725Z,101581.29
2019-05-29T22:35:47.330Z,101580.83
2019-05-29T22:39:04.814Z,101583.70
2019-05-29T22:42:21.596Z,101585.71
2019-05-29T22:45:38.243Z,101588.86
2019-05-29T22:48:55.857Z,101593.97
2019-05-29T22:52:12.728Z,101592.14
2019-05-29T22:55:29.343Z,101605.66
2019-05-29T22:58:45.975Z,101600.96
2019-05-29T23:02:02.992Z,101610.44
2019-05-29T23:05:19.788Z,101611.70
2019-05-29T23:08:36.398Z,101614.30
2019-05-29T23:11:54.148Z,101617.97
2019-05-29T23:15:11.359Z,101620.81
2019-05-29T23:18:27.959Z,101620.33
2019-05-29T23:21:44.830Z,101623.50
2019-05-29T23:25:01.500Z,101617.44
2019-05-29T23:28:18.264Z,101625.25
2019-05-29T23:31:34.944Z,101613.47
2019-05-29T23:34:52.887Z,101620.19
2019-05-29T23:38:09.711Z,101630.51
2019-05-29T23:41:26.327Z,101626.63
2019-05-29T23:44:43.059Z,101630.83
2019-05-29T23:47:59.691Z,101625.61
2019-05-29T23:51:16.379Z,101629.81
2019-05-29T23:54:33.034Z,101626.91
2019-05-29T23:57:49.679Z,101628.95
